sensor_id;sensor_type;location;lat;lon;timestamp;temperature;humidity
38866;DHT22;62686;48.984;8.394;2023-04-03T00:01:02;5.10;99.90
38866;DHT22;62686;48.984;8.394;2023-04-03T00:03:31;5.10;99.90
38866;DHT22;62686;48.984;8.394;2023-04-03T00:06:00;5.20;99.90
38866;DHT22;62686;48.984;8.394;2023-04-03T00:08:29;5.10;99.90
38866;DHT22;62686;48.984;8.394;2023-04-03T00:10:58;5.10;99.90
38866;DHT22;62686;48.984;8.394;2023-04-03T00:13:26;5.10;99.90
38866;DHT22;62686;48.984;8.394;2023-04-03T00:15:54;5.00;99.90
38866;DHT22;62686;48.984;8.394;2023-04-03T00:18:24;5.10;99.90
38866;DHT22;62686;48.984;8.394;2023-04-03T00:20:53;5.00;99.90
38866;DHT22;62686;48.984;8.394;2023-04-03T00:23:21;5.10;99.90
38866;DHT22;62686;48.984;8.394;2023-04-03T00:25:50;5.00;99.90
38866;DHT22;62686;48.984;8.394;2023-04-03T00:28:19;5.10;99.90
38866;DHT22;62686;48.984;8.394;2023-04-03T00:30:49;5.10;99.90
38866;DHT22;62686;48.984;8.394;2023-04-03T00:33:17;5.10;99.90
38866;DHT22;62686;48.984;8.394;2023-04-03T00:35:49;5.00;99.90
38866;DHT22;62686;48.984;8.394;2023-04-03T00:38:18;5.10;99.90
38866;DHT22;62686;48.984;8.394;2023-04-03T00:40:48;5.10;99.90
38866;DHT22;62686;48.984;8.394;2023-04-03T00:43:18;5.10;99.90
38866;DHT22;62686;48.984;8.394;2023-04-03T00:45:48;5.10;99.90
38866;DHT22;62686;48.984;8.394;2023-04-03T00:48:20;5.20;99.90
38866;DHT22;62686;48.984;8.394;2023-04-03T00:50:52;5.10;99.90
38866;DHT22;62686;48.984;8.394;2023-04-03T00:53:23;5.10;99.90
38866;DHT22;62686;48.984;8.394;2023-04-03T00:55:54;5.10;99.90
38866;DHT22;62686;48.984;8.394;2023-04-03T00:58:27;5.00;99.90
38866;DHT22;62686;48.984;8.394;2023-04-03T01:00:58;5.00;99.90
38866;DHT22;62686;48.984;8.394;2023-04-03T01:03:27;5.00;99.90
38866;DHT22;62686;48.984;8.394;2023-04-03T01:05:57;4.90;99.90
38866;DHT22;62686;48.984;8.394;2023-04-03T01:08:25;4.90;99.90
38866;DHT22;62686;48.984;8.394;2023-04-03T01:10:54;4.90;99.90
38866;DHT22;62686;48.984;8.394;2023-04-03T01:13:24;4.90;99.90
38866;DHT22;62686;48.984;8.394;2023-04-03T01:15:53;5.00;99.90
38866;DHT22;62686;48.984;8.394;2023-04-03T01:18:23;5.00;99.90
38866;DHT22;62686;48.984;8.394;2023-04-03T01:21:15;5.00;99.90
38866;DHT22;62686;48.984;8.394;2023-04-03T01:24:08;4.90;99.90
38866;DHT22;62686;48.984;8.394;2023-04-03T01:26:39;4.80;99.90
38866;DHT22;62686;48.984;8.394;2023-04-03T01:29:07;4.80;99.90
38866;DHT22;62686;48.984;8.394;2023-04-03T01:31:48;4.80;99.90
38866;DHT22;62686;48.984;8.394;2023-04-03T01:34:17;4.80;99.90
38866;DHT22;62686;48.984;8.394;2023-04-03T01:36:45;4.80;99.90
38866;DHT22;62686;48.984;8.394;2023-04-03T01:39:13;4.70;99.90
38866;DHT22;62686;48.984;8.394;2023-04-03T01:41:42;4.60;99.90
38866;DHT22;62686;48.984;8.394;2023-04-03T01:44:11;4.60;99.90
38866;DHT22;62686;48.984;8.394;2023-04-03T01:46:39;4.50;99.90
38866;DHT22;62686;48.984;8.394;2023-04-03T01:49:10;4.50;99.90
38866;DHT22;62686;48.984;8.394;2023-04-03T01:51:38;4.50;99.90
38866;DHT22;62686;48.984;8.394;2023-04-03T01:54:06;4.50;99.90
38866;DHT22;62686;48.984;8.394;2023-04-03T01:56:35;4.40;99.90
38866;DHT22;62686;48.984;8.394;2023-04-03T01:59:03;4.40;99.90
38866;DHT22;62686;48.984;8.394;2023-04-03T02:01:31;4.30;99.90
38866;DHT22;62686;48.984;8.394;2023-04-03T02:03:59;4.30;99.90
38866;DHT22;62686;48.984;8.394;2023-04-03T02:06:29;4.20;99.90
38866;DHT22;62686;48.984;8.394;2023-04-03T02:08:57;4.10;99.90
38866;DHT22;62686;48.984;8.394;2023-04-03T02:11:25;4.10;99.90
38866;DHT22;62686;48.984;8.394;2023-04-03T02:13:54;4.10;99.90
38866;DHT22;62686;48.984;8.394;2023-04-03T02:16:22;4.00;99.90
38866;DHT22;62686;48.984;8.394;2023-04-03T02:18:50;3.90;99.90
38866;DHT22;62686;48.984;8.394;2023-04-03T02:21:18;3.90;99.90
38866;DHT22;62686;48.984;8.394;2023-04-03T02:23:48;3.80;99.90
38866;DHT22;62686;48.984;8.394;2023-04-03T02:26:17;3.80;99.90
38866;DHT22;62686;48.984;8.394;2023-04-03T02:28:45;3.70;99.90
38866;DHT22;62686;48.984;8.394;2023-04-03T02:31:13;3.70;99.90
38866;DHT22;62686;48.984;8.394;2023-04-03T02:33:42;3.80;99.90
38866;DHT22;62686;48.984;8.394;2023-04-03T02:36:10;3.80;99.90
38866;DHT22;62686;48.984;8.394;2023-04-03T02:38:38;3.70;99.90
38866;DHT22;62686;48.984;8.394;2023-04-03T02:43:43;3.60;99.90
38866;DHT22;62686;48.984;8.394;2023-04-03T02:46:12;3.50;99.90
38866;DHT22;62686;48.984;8.394;2023-04-03T02:48:41;3.40;99.90
38866;DHT22;62686;48.984;8.394;2023-04-03T02:51:09;3.40;99.90
38866;DHT22;62686;48.984;8.394;2023-04-03T02:53:38;3.30;99.90
38866;DHT22;62686;48.984;8.394;2023-04-03T02:56:06;3.30;99.90
38866;DHT22;62686;48.984;8.394;2023-04-03T02:58:34;3.10;99.90
38866;DHT22;62686;48.984;8.394;2023-04-03T03:01:04;3.00;99.90
38866;DHT22;62686;48.984;8.394;2023-04-03T03:03:32;2.70;99.90
38866;DHT22;62686;48.984;8.394;2023-04-03T03:06:07;2.70;99.90
38866;DHT22;62686;48.984;8.394;2023-04-03T03:08:36;2.80;99.90
38866;DHT22;62686;48.984;8.394;2023-04-03T03:11:05;2.90;99.90
38866;DHT22;62686;48.984;8.394;2023-04-03T03:13:34;2.90;99.90
38866;DHT22;62686;48.984;8.394;2023-04-03T03:16:07;2.90;99.90
38866;DHT22;62686;48.984;8.394;2023-04-03T03:18:35;2.80;99.90
38866;DHT22;62686;48.984;8.394;2023-04-03T03:21:04;2.70;99.90
38866;DHT22;62686;48.984;8.394;2023-04-03T03:23:32;2.70;99.90
38866;DHT22;62686;48.984;8.394;2023-04-03T03:26:03;2.60;99.90
38866;DHT22;62686;48.984;8.394;2023-04-03T03:28:31;2.60;99.90
38866;DHT22;62686;48.984;8.394;2023-04-03T03:31:03;2.70;99.90
38866;DHT22;62686;48.984;8.394;2023-04-03T03:33:33;2.70;99.90
38866;DHT22;62686;48.984;8.394;2023-04-03T03:36:02;2.70;99.90
38866;DHT22;62686;48.984;8.394;2023-04-03T03:38:31;2.70;99.90
38866;DHT22;62686;48.984;8.394;2023-04-03T03:40:59;2.80;99.90
38866;DHT22;62686;48.984;8.394;2023-04-03T03:43:28;2.80;99.90
38866;DHT22;62686;48.984;8.394;2023-04-03T03:45:56;2.80;99.90
38866;DHT22;62686;48.984;8.394;2023-04-03T03:48:25;2.80;99.90
38866;DHT22;62686;48.984;8.394;2023-04-03T03:50:54;2.80;99.90
38866;DHT22;62686;48.984;8.394;2023-04-03T03:53:23;2.80;99.90
38866;DHT22;62686;48.984;8.394;2023-04-03T03:55:51;2.80;99.90
38866;DHT22;62686;48.984;8.394;2023-04-03T03:58:19;2.90;99.90
38866;DHT22;62686;48.984;8.394;2023-04-03T04:00:47;2.90;99.90
38866;DHT22;62686;48.984;8.394;2023-04-03T04:03:16;2.90;99.90
38866;DHT22;62686;48.984;8.394;2023-04-03T04:05:44;2.80;99.90
38866;DHT22;62686;48.984;8.394;2023-04-03T04:08:14;2.80;99.90
38866;DHT22;62686;48.984;8.394;2023-04-03T04:10:42;2.80;99.90
38866;DHT22;62686;48.984;8.394;2023-04-03T04:13:10;2.70;99.90
38866;DHT22;62686;48.984;8.394;2023-04-03T04:15:38;2.70;99.90
38866;DHT22;62686;48.984;8.394;2023-04-03T04:18:07;2.80;99.90
38866;DHT22;62686;48.984;8.394;2023-04-03T04:20:35;2.80;99.90
38866;DHT22;62686;48.984;8.394;2023-04-03T04:23:03;2.90;99.90
38866;DHT22;62686;48.984;8.394;2023-04-03T04:25:33;3.10;99.90
38866;DHT22;62686;48.984;8.394;2023-04-03T04:28:01;3.10;99.90
38866;DHT22;62686;48.984;8.394;2023-04-03T04:30:31;3.20;99.90
38866;DHT22;62686;48.984;8.394;2023-04-03T04:33:00;3.30;99.90
38866;DHT22;62686;48.984;8.394;2023-04-03T04:35:31;3.30;99.90
38866;DHT22;62686;48.984;8.394;2023-04-03T04:38:00;3.40;99.90
38866;DHT22;62686;48.984;8.394;2023-04-03T04:40:28;3.40;99.90
38866;DHT22;62686;48.984;8.394;2023-04-03T04:43:12;3.40;99.90
38866;DHT22;62686;48.984;8.394;2023-04-03T04:45:48;3.40;99.90
38866;DHT22;62686;48.984;8.394;2023-04-03T04:48:17;3.30;99.90
38866;DHT22;62686;48.984;8.394;2023-04-03T04:50:48;3.30;99.90
38866;DHT22;62686;48.984;8.394;2023-04-03T04:53:18;3.20;99.90
38866;DHT22;62686;48.984;8.394;2023-04-03T04:55:46;3.20;99.90
38866;DHT22;62686;48.984;8.394;2023-04-03T04:58:16;3.20;99.90
38866;DHT22;62686;48.984;8.394;2023-04-03T05:00:44;3.20;99.90
38866;DHT22;62686;48.984;8.394;2023-04-03T05:03:12;3.20;99.90
38866;DHT22;62686;48.984;8.394;2023-04-03T05:55:20;3.50;99.90
38866;DHT22;62686;48.984;8.394;2023-04-03T05:57:48;3.60;99.90
38866;DHT22;62686;48.984;8.394;2023-04-03T06:00:18;3.70;99.90
38866;DHT22;62686;48.984;8.394;2023-04-03T06:02:46;3.70;99.90
38866;DHT22;62686;48.984;8.394;2023-04-03T06:05:14;3.80;99.90
38866;DHT22;62686;48.984;8.394;2023-04-03T06:07:43;3.80;99.90
38866;DHT22;62686;48.984;8.394;2023-04-03T06:10:12;3.80;99.90
38866;DHT22;62686;48.984;8.394;2023-04-03T06:12:43;3.90;99.90
38866;DHT22;62686;48.984;8.394;2023-04-03T06:15:11;3.90;99.90
38866;DHT22;62686;48.984;8.394;2023-04-03T06:17:40;4.00;99.90
38866;DHT22;62686;48.984;8.394;2023-04-03T06:20:08;4.10;99.90
38866;DHT22;62686;48.984;8.394;2023-04-03T06:22:37;4.20;99.90
38866;DHT22;62686;48.984;8.394;2023-04-03T06:25:06;4.30;99.90
38866;DHT22;62686;48.984;8.394;2023-04-03T06:27:34;4.40;99.90
38866;DHT22;62686;48.984;8.394;2023-04-03T06:30:05;4.50;99.90
38866;DHT22;62686;48.984;8.394;2023-04-03T06:32:34;4.70;99.90
38866;DHT22;62686;48.984;8.394;2023-04-03T06:35:03;4.80;99.90
38866;DHT22;62686;48.984;8.394;2023-04-03T06:37:31;4.90;99.90
38866;DHT22;62686;48.984;8.394;2023-04-03T06:39:59;5.10;99.90
38866;DHT22;62686;48.984;8.394;2023-04-03T06:42:28;5.30;99.90
38866;DHT22;62686;48.984;8.394;2023-04-03T06:44:57;5.60;99.90
38866;DHT22;62686;48.984;8.394;2023-04-03T06:47:26;6.30;99.90
38866;DHT22;62686;48.984;8.394;2023-04-03T06:49:54;7.10;99.90
38866;DHT22;62686;48.984;8.394;2023-04-03T06:52:23;7.40;99.90
38866;DHT22;62686;48.984;8.394;2023-04-03T06:54:51;7.30;99.90
38866;DHT22;62686;48.984;8.394;2023-04-03T06:57:23;7.80;99.90
38866;DHT22;62686;48.984;8.394;2023-04-03T06:59:52;9.20;99.90
38866;DHT22;62686;48.984;8.394;2023-04-03T07:02:20;10.10;99.90
38866;DHT22;62686;48.984;8.394;2023-04-03T07:04:50;10.80;99.90
38866;DHT22;62686;48.984;8.394;2023-04-03T07:07:18;10.80;99.90
38866;DHT22;62686;48.984;8.394;2023-04-03T07:09:46;11.60;99.90
38866;DHT22;62686;48.984;8.394;2023-04-03T07:12:14;10.60;99.90
38866;DHT22;62686;48.984;8.394;2023-04-03T07:14:43;10.50;99.90
38866;DHT22;62686;48.984;8.394;2023-04-03T07:17:12;10.30;99.90
38866;DHT22;62686;48.984;8.394;2023-04-03T07:19:40;9.90;99.90
38866;DHT22;62686;48.984;8.394;2023-04-03T07:22:09;9.60;99.90
38866;DHT22;62686;48.984;8.394;2023-04-03T07:24:39;8.40;99.90
38866;DHT22;62686;48.984;8.394;2023-04-03T07:27:07;7.40;99.90
38866;DHT22;62686;48.984;8.394;2023-04-03T07:29:35;7.10;99.90
38866;DHT22;62686;48.984;8.394;2023-04-03T07:32:04;7.70;99.90
38866;DHT22;62686;48.984;8.394;2023-04-03T07:34:33;8.50;99.90
38866;DHT22;62686;48.984;8.394;2023-04-03T07:37:02;9.80;99.90
38866;DHT22;62686;48.984;8.394;2023-04-03T07:39:33;11.10;99.90
38866;DHT22;62686;48.984;8.394;2023-04-03T07:42:02;11.90;99.90
38866;DHT22;62686;48.984;8.394;2023-04-03T07:44:30;12.40;99.90
38866;DHT22;62686;48.984;8.394;2023-04-03T07:46:59;13.00;99.90
38866;DHT22;62686;48.984;8.394;2023-04-03T07:49:27;12.60;99.90
38866;DHT22;62686;48.984;8.394;2023-04-03T07:51:55;12.70;99.90
38866;DHT22;62686;48.984;8.394;2023-04-03T07:54:24;11.90;99.90
38866;DHT22;62686;48.984;8.394;2023-04-03T07:56:53;12.30;99.90
38866;DHT22;62686;48.984;8.394;2023-04-03T07:59:22;12.30;99.90
38866;DHT22;62686;48.984;8.394;2023-04-03T08:01:50;11.60;99.90
38866;DHT22;62686;48.984;8.394;2023-04-03T08:04:19;11.50;99.90
38866;DHT22;62686;48.984;8.394;2023-04-03T08:06:49;11.00;99.90
38866;DHT22;62686;48.984;8.394;2023-04-03T08:09:18;11.00;99.90
38866;DHT22;62686;48.984;8.394;2023-04-03T08:11:46;10.30;99.90
38866;DHT22;62686;48.984;8.394;2023-04-03T08:14:16;10.60;99.90
38866;DHT22;62686;48.984;8.394;2023-04-03T08:16:46;11.20;99.90
38866;DHT22;62686;48.984;8.394;2023-04-03T08:19:15;11.70;99.90
38866;DHT22;62686;48.984;8.394;2023-04-03T08:21:51;12.00;99.90
38866;DHT22;62686;48.984;8.394;2023-04-03T08:24:19;11.70;99.90
38866;DHT22;62686;48.984;8.394;2023-04-03T08:26:47;12.00;99.90
38866;DHT22;62686;48.984;8.394;2023-04-03T08:29:19;11.40;99.90
38866;DHT22;62686;48.984;8.394;2023-04-03T08:31:49;10.60;99.90
38866;DHT22;62686;48.984;8.394;2023-04-03T08:34:18;11.00;99.90
38866;DHT22;62686;48.984;8.394;2023-04-03T08:36:48;10.80;99.90
38866;DHT22;62686;48.984;8.394;2023-04-03T08:39:17;9.70;99.90
38866;DHT22;62686;48.984;8.394;2023-04-03T08:41:46;10.30;99.90
38866;DHT22;62686;48.984;8.394;2023-04-03T08:44:21;9.90;99.90
38866;DHT22;62686;48.984;8.394;2023-04-03T08:47:04;9.40;99.90
38866;DHT22;62686;48.984;8.394;2023-04-03T08:49:41;8.70;99.90
38866;DHT22;62686;48.984;8.394;2023-04-03T08:52:16;8.20;99.90
38866;DHT22;62686;48.984;8.394;2023-04-03T08:54:50;7.90;99.90
38866;DHT22;62686;48.984;8.394;2023-04-03T08:57:27;7.70;99.90
38866;DHT22;62686;48.984;8.394;2023-04-03T09:00:00;8.00;99.90
38866;DHT22;62686;48.984;8.394;2023-04-03T09:02:33;10.40;99.90
38866;DHT22;62686;48.984;8.394;2023-04-03T09:05:08;11.50;99.90
38866;DHT22;62686;48.984;8.394;2023-04-03T09:07:44;10.30;99.90
38866;DHT22;62686;48.984;8.394;2023-04-03T09:10:19;9.20;99.90
38866;DHT22;62686;48.984;8.394;2023-04-03T09:12:55;9.70;99.90
38866;DHT22;62686;48.984;8.394;2023-04-03T09:15:28;10.20;99.90
38866;DHT22;62686;48.984;8.394;2023-04-03T09:18:06;10.70;99.90
38866;DHT22;62686;48.984;8.394;2023-04-03T09:20:44;11.20;99.90
38866;DHT22;62686;48.984;8.394;2023-04-03T09:23:19;11.20;99.90
38866;DHT22;62686;48.984;8.394;2023-04-03T09:25:52;10.70;99.90
38866;DHT22;62686;48.984;8.394;2023-04-03T09:28:21;10.10;99.90
38866;DHT22;62686;48.984;8.394;2023-04-03T09:30:51;9.40;99.90
38866;DHT22;62686;48.984;8.394;2023-04-03T09:33:20;8.70;99.90
38866;DHT22;62686;48.984;8.394;2023-04-03T09:35:50;8.50;99.90
38866;DHT22;62686;48.984;8.394;2023-04-03T09:38:20;8.40;99.90
38866;DHT22;62686;48.984;8.394;2023-04-03T09:40:51;8.50;99.90
38866;DHT22;62686;48.984;8.394;2023-04-03T09:43:30;8.30;99.90
38866;DHT22;62686;48.984;8.394;2023-04-03T09:46:28;8.10;99.90
38866;DHT22;62686;48.984;8.394;2023-04-03T09:48:58;8.20;99.90
38866;DHT22;62686;48.984;8.394;2023-04-03T09:51:33;9.30;99.90
38866;DHT22;62686;48.984;8.394;2023-04-03T09:57:09;9.00;99.90
38866;DHT22;62686;48.984;8.394;2023-04-03T09:59:44;9.00;99.90
38866;DHT22;62686;48.984;8.394;2023-04-03T10:02:31;9.40;99.90
38866;DHT22;62686;48.984;8.394;2023-04-03T10:05:00;10.00;99.90
38866;DHT22;62686;48.984;8.394;2023-04-03T10:07:34;10.20;99.90
38866;DHT22;62686;48.984;8.394;2023-04-03T10:10:17;10.30;99.90
38866;DHT22;62686;48.984;8.394;2023-04-03T10:12:46;10.40;99.90
38866;DHT22;62686;48.984;8.394;2023-04-03T10:15:17;10.70;99.90
38866;DHT22;62686;48.984;8.394;2023-04-03T10:17:53;10.20;99.90
38866;DHT22;62686;48.984;8.394;2023-04-03T10:20:29;10.00;99.90
38866;DHT22;62686;48.984;8.394;2023-04-03T10:23:09;9.50;99.90
38866;DHT22;62686;48.984;8.394;2023-04-03T10:25:44;9.50;99.90
38866;DHT22;62686;48.984;8.394;2023-04-03T10:28:20;9.40;99.90
38866;DHT22;62686;48.984;8.394;2023-04-03T10:30:58;9.50;99.90
38866;DHT22;62686;48.984;8.394;2023-04-03T10:33:39;9.80;99.90
38866;DHT22;62686;48.984;8.394;2023-04-03T10:36:19;9.90;99.90
38866;DHT22;62686;48.984;8.394;2023-04-03T10:38:58;9.80;99.90
38866;DHT22;62686;48.984;8.394;2023-04-03T10:41:38;9.80;99.90
38866;DHT22;62686;48.984;8.394;2023-04-03T10:44:16;9.80;99.90
38866;DHT22;62686;48.984;8.394;2023-04-03T10:46:53;9.60;99.90
38866;DHT22;62686;48.984;8.394;2023-04-03T10:49:38;9.70;99.90
38866;DHT22;62686;48.984;8.394;2023-04-03T10:52:19;9.60;99.90
38866;DHT22;62686;48.984;8.394;2023-04-03T10:54:59;10.00;99.90
38866;DHT22;62686;48.984;8.394;2023-04-03T10:57:29;10.50;99.90
38866;DHT22;62686;48.984;8.394;2023-04-03T11:00:00;10.40;99.90
38866;DHT22;62686;48.984;8.394;2023-04-03T11:02:31;10.60;99.90
38866;DHT22;62686;48.984;8.394;2023-04-03T11:05:05;10.80;99.90
38866;DHT22;62686;48.984;8.394;2023-04-03T11:07:40;10.80;99.90
38866;DHT22;62686;48.984;8.394;2023-04-03T11:10:15;11.00;99.90
38866;DHT22;62686;48.984;8.394;2023-04-03T11:12:47;11.70;99.90
38866;DHT22;62686;48.984;8.394;2023-04-03T11:15:18;12.20;99.90
38866;DHT22;62686;48.984;8.394;2023-04-03T11:17:51;11.80;99.80
38866;DHT22;62686;48.984;8.394;2023-04-03T11:20:28;11.20;99.90
38866;DHT22;62686;48.984;8.394;2023-04-03T11:23:03;10.80;99.70
38866;DHT22;62686;48.984;8.394;2023-04-03T11:25:33;10.30;99.90
38866;DHT22;62686;48.984;8.394;2023-04-03T11:28:05;10.40;99.90
38866;DHT22;62686;48.984;8.394;2023-04-03T11:30:39;10.90;99.90
38866;DHT22;62686;48.984;8.394;2023-04-03T11:33:28;10.80;99.90
38866;DHT22;62686;48.984;8.394;2023-04-03T11:36:04;10.40;99.90
38866;DHT22;62686;48.984;8.394;2023-04-03T11:38:41;10.50;99.90
38866;DHT22;62686;48.984;8.394;2023-04-03T11:41:13;10.80;99.90
38866;DHT22;62686;48.984;8.394;2023-04-03T11:43:55;11.10;99.90
38866;DHT22;62686;48.984;8.394;2023-04-03T11:46:50;11.30;99.80
38866;DHT22;62686;48.984;8.394;2023-04-03T11:49:58;11.30;99.90
38866;DHT22;62686;48.984;8.394;2023-04-03T11:53:00;11.00;99.20
38866;DHT22;62686;48.984;8.394;2023-04-03T11:55:53;11.20;99.90
38866;DHT22;62686;48.984;8.394;2023-04-03T11:58:24;11.10;99.60
38866;DHT22;62686;48.984;8.394;2023-04-03T12:00:55;10.80;99.90
38866;DHT22;62686;48.984;8.394;2023-04-03T12:09:33;10.30;99.90
38866;DHT22;62686;48.984;8.394;2023-04-03T12:15:23;10.00;99.90
38866;DHT22;62686;48.984;8.394;2023-04-03T12:17:52;9.90;99.90
38866;DHT22;62686;48.984;8.394;2023-04-03T12:23:33;10.30;99.90
38866;DHT22;62686;48.984;8.394;2023-04-03T12:26:18;10.50;99.90
38866;DHT22;62686;48.984;8.394;2023-04-03T12:28:49;10.60;99.50
38866;DHT22;62686;48.984;8.394;2023-04-03T12:31:21;10.50;99.90
38866;DHT22;62686;48.984;8.394;2023-04-03T12:34:04;9.90;99.90
38866;DHT22;62686;48.984;8.394;2023-04-03T12:36:59;9.70;99.90
38866;DHT22;62686;48.984;8.394;2023-04-03T12:39:45;9.60;99.90
38866;DHT22;62686;48.984;8.394;2023-04-03T12:42:43;9.80;99.90
38866;DHT22;62686;48.984;8.394;2023-04-03T12:45:19;10.00;99.90
38866;DHT22;62686;48.984;8.394;2023-04-03T12:47:49;9.90;99.90
38866;DHT22;62686;48.984;8.394;2023-04-03T12:50:22;9.80;99.90
38866;DHT22;62686;48.984;8.394;2023-04-03T12:52:57;9.60;99.90
38866;DHT22;62686;48.984;8.394;2023-04-03T12:55:53;9.50;99.90
38866;DHT22;62686;48.984;8.394;2023-04-03T13:01:13;9.40;99.90
38866;DHT22;62686;48.984;8.394;2023-04-03T13:03:48;9.40;99.90
38866;DHT22;62686;48.984;8.394;2023-04-03T13:09:00;9.00;99.90
38866;DHT22;62686;48.984;8.394;2023-04-03T13:11:33;8.90;99.90
38866;DHT22;62686;48.984;8.394;2023-04-03T13:14:12;8.90;99.90
38866;DHT22;62686;48.984;8.394;2023-04-03T13:16:52;9.00;99.90
38866;DHT22;62686;48.984;8.394;2023-04-03T13:19:23;9.10;99.90
38866;DHT22;62686;48.984;8.394;2023-04-03T13:21:57;9.30;99.90
38866;DHT22;62686;48.984;8.394;2023-04-03T13:24:26;9.30;99.90
38866;DHT22;62686;48.984;8.394;2023-04-03T13:26:56;9.20;99.90
38866;DHT22;62686;48.984;8.394;2023-04-03T13:29:28;9.10;99.90
38866;DHT22;62686;48.984;8.394;2023-04-03T13:32:00;9.20;99.90
38866;DHT22;62686;48.984;8.394;2023-04-03T13:34:35;9.30;99.90
38866;DHT22;62686;48.984;8.394;2023-04-03T13:37:05;9.30;99.90
38866;DHT22;62686;48.984;8.394;2023-04-03T13:40:01;9.40;99.90
38866;DHT22;62686;48.984;8.394;2023-04-03T13:42:31;9.60;99.90
38866;DHT22;62686;48.984;8.394;2023-04-03T13:45:17;9.70;99.60
38866;DHT22;62686;48.984;8.394;2023-04-03T13:47:50;9.90;99.90
38866;DHT22;62686;48.984;8.394;2023-04-03T13:50:20;10.00;99.00
38866;DHT22;62686;48.984;8.394;2023-04-03T13:52:52;9.90;99.70
38866;DHT22;62686;48.984;8.394;2023-04-03T13:55:24;9.80;99.20
38866;DHT22;62686;48.984;8.394;2023-04-03T13:57:55;9.80;99.90
38866;DHT22;62686;48.984;8.394;2023-04-03T14:00:36;9.60;98.90
38866;DHT22;62686;48.984;8.394;2023-04-03T14:03:18;9.60;98.60
38866;DHT22;62686;48.984;8.394;2023-04-03T14:08:54;9.90;99.90
38866;DHT22;62686;48.984;8.394;2023-04-03T14:11:49;10.00;98.30
38866;DHT22;62686;48.984;8.394;2023-04-03T14:14:24;9.90;98.60
38866;DHT22;62686;48.984;8.394;2023-04-03T14:16:56;9.80;99.10
38866;DHT22;62686;48.984;8.394;2023-04-03T14:19:35;9.70;98.00
38866;DHT22;62686;48.984;8.394;2023-04-03T14:22:15;9.60;99.00
38866;DHT22;62686;48.984;8.394;2023-04-03T14:24:44;9.70;99.90
38866;DHT22;62686;48.984;8.394;2023-04-03T14:27:17;9.80;99.60
38866;DHT22;62686;48.984;8.394;2023-04-03T14:29:47;9.90;99.30
38866;DHT22;62686;48.984;8.394;2023-04-03T14:32:17;10.10;98.70
38866;DHT22;62686;48.984;8.394;2023-04-03T14:34:47;10.30;99.30
38866;DHT22;62686;48.984;8.394;2023-04-03T14:37:18;10.80;98.40
38866;DHT22;62686;48.984;8.394;2023-04-03T14:39:47;11.20;99.80
38866;DHT22;62686;48.984;8.394;2023-04-03T14:42:19;11.40;98.70
38866;DHT22;62686;48.984;8.394;2023-04-03T14:44:48;11.00;99.10
38866;DHT22;62686;48.984;8.394;2023-04-03T14:47:19;10.60;98.70
38866;DHT22;62686;48.984;8.394;2023-04-03T14:49:55;10.40;99.90
38866;DHT22;62686;48.984;8.394;2023-04-03T14:52:25;10.30;99.90
38866;DHT22;62686;48.984;8.394;2023-04-03T14:54:57;9.70;99.90
38866;DHT22;62686;48.984;8.394;2023-04-03T14:57:27;9.50;99.90
38866;DHT22;62686;48.984;8.394;2023-04-03T14:59:56;9.20;99.90
38866;DHT22;62686;48.984;8.394;2023-04-03T15:02:29;9.20;99.90
38866;DHT22;62686;48.984;8.394;2023-04-03T15:05:02;9.40;99.90
38866;DHT22;62686;48.984;8.394;2023-04-03T15:07:33;9.70;99.90
38866;DHT22;62686;48.984;8.394;2023-04-03T15:10:17;9.60;99.90
38866;DHT22;62686;48.984;8.394;2023-04-03T15:12:46;9.40;99.40
38866;DHT22;62686;48.984;8.394;2023-04-03T15:15:16;9.30;99.00
38866;DHT22;62686;48.984;8.394;2023-04-03T15:17:44;9.20;98.10
38866;DHT22;62686;48.984;8.394;2023-04-03T15:20:18;9.10;98.10
38866;DHT22;62686;48.984;8.394;2023-04-03T15:22:47;9.50;98.80
38866;DHT22;62686;48.984;8.394;2023-04-03T15:25:15;9.80;98.40
38866;DHT22;62686;48.984;8.394;2023-04-03T15:27:45;9.70;98.90
38866;DHT22;62686;48.984;8.394;2023-04-03T15:30:16;9.40;98.50
38866;DHT22;62686;48.984;8.394;2023-04-03T15:32:45;9.00;99.30
38866;DHT22;62686;48.984;8.394;2023-04-03T15:35:16;8.60;99.10
38866;DHT22;62686;48.984;8.394;2023-04-03T15:37:44;8.30;99.80
38866;DHT22;62686;48.984;8.394;2023-04-03T15:40:13;8.20;99.90
38866;DHT22;62686;48.984;8.394;2023-04-03T15:42:41;8.10;99.90
38866;DHT22;62686;48.984;8.394;2023-04-03T15:45:10;8.20;99.50
38866;DHT22;62686;48.984;8.394;2023-04-03T15:47:41;8.30;99.90
38866;DHT22;62686;48.984;8.394;2023-04-03T15:50:10;8.50;98.60
38866;DHT22;62686;48.984;8.394;2023-04-03T15:52:43;8.40;98.60
38866;DHT22;62686;48.984;8.394;2023-04-03T15:55:11;8.40;99.00
38866;DHT22;62686;48.984;8.394;2023-04-03T15:57:39;8.50;98.80
38866;DHT22;62686;48.984;8.394;2023-04-03T16:00:09;8.60;99.60
38866;DHT22;62686;48.984;8.394;2023-04-03T16:02:37;8.90;99.20
38866;DHT22;62686;48.984;8.394;2023-04-03T16:05:06;9.10;99.30
38866;DHT22;62686;48.984;8.394;2023-04-03T16:07:37;9.20;99.40
38866;DHT22;62686;48.984;8.394;2023-04-03T16:10:13;9.00;97.20
38866;DHT22;62686;48.984;8.394;2023-04-03T16:12:42;8.60;97.50
38866;DHT22;62686;48.984;8.394;2023-04-03T16:15:11;8.40;98.40
38866;DHT22;62686;48.984;8.394;2023-04-03T16:17:40;8.20;98.70
38866;DHT22;62686;48.984;8.394;2023-04-03T16:20:10;8.00;98.80
38866;DHT22;62686;48.984;8.394;2023-04-03T16:22:40;7.80;99.40
38866;DHT22;62686;48.984;8.394;2023-04-03T16:25:10;7.70;99.90
38866;DHT22;62686;48.984;8.394;2023-04-03T16:27:39;7.50;99.90
38866;DHT22;62686;48.984;8.394;2023-04-03T16:30:08;7.50;99.80
38866;DHT22;62686;48.984;8.394;2023-04-03T16:32:38;7.40;99.50
38866;DHT22;62686;48.984;8.394;2023-04-03T16:35:07;7.50;99.10
38866;DHT22;62686;48.984;8.394;2023-04-03T16:37:37;7.70;99.40
38866;DHT22;62686;48.984;8.394;2023-04-03T16:40:07;7.80;99.90
38866;DHT22;62686;48.984;8.394;2023-04-03T16:42:37;8.00;99.70
38866;DHT22;62686;48.984;8.394;2023-04-03T16:45:06;8.20;98.90
38866;DHT22;62686;48.984;8.394;2023-04-03T16:47:34;8.00;98.80
38866;DHT22;62686;48.984;8.394;2023-04-03T16:50:04;8.00;98.80
38866;DHT22;62686;48.984;8.394;2023-04-03T16:52:32;7.80;98.50
38866;DHT22;62686;48.984;8.394;2023-04-03T16:55:00;7.60;99.00
38866;DHT22;62686;48.984;8.394;2023-04-03T16:57:29;7.50;99.10
38866;DHT22;62686;48.984;8.394;2023-04-03T17:00:00;7.50;99.10
38866;DHT22;62686;48.984;8.394;2023-04-03T17:02:28;7.40;99.50
38866;DHT22;62686;48.984;8.394;2023-04-03T17:04:57;7.30;99.90
38866;DHT22;62686;48.984;8.394;2023-04-03T17:07:26;7.40;99.90
38866;DHT22;62686;48.984;8.394;2023-04-03T17:09:54;7.40;98.80
38866;DHT22;62686;48.984;8.394;2023-04-03T17:12:22;7.30;98.80
38866;DHT22;62686;48.984;8.394;2023-04-03T17:14:50;7.20;98.90
38866;DHT22;62686;48.984;8.394;2023-04-03T17:17:22;7.20;98.80
38866;DHT22;62686;48.984;8.394;2023-04-03T17:19:54;7.10;99.40
38866;DHT22;62686;48.984;8.394;2023-04-03T17:22:24;7.10;99.20
38866;DHT22;62686;48.984;8.394;2023-04-03T17:24:55;7.10;99.60
38866;DHT22;62686;48.984;8.394;2023-04-03T17:27:25;6.90;99.90